Time;durP1;ratioP1;P1;durP2;ratioP2;P2;SDS_P1;SDS_P2;PMS_P1;PMS_P2;Temp;Humidity;BMP_temperature;BMP_pressure;BME280_temperature;BME280_humidity;BME280_pressure;Samples;Min_cycle;Max_cycle;Signal;HPM_P1;HPM_P2
2024/01/05 00:00:09;;;;;;;0.85;0.85;;;;;;;4.18;85.52;96511.88;4979472;28;20046;-72
2024/01/05 00:02:37;;;;;;;1.17;1.17;;;;;;;4.26;85.46;96505.66;4978351;28;20053;-72
2024/01/05 00:05:06;;;;;;;0.88;0.88;;;;;;;4.23;84.79;96514.78;4978128;28;20043;-72
2024/01/05 00:07:36;;;;;;;0.73;0.73;;;;;;;4.27;84.70;96509.94;4969936;28;20049;-72
2024/01/05 00:10:04;;;;;;;1.05;1.05;;;;;;;4.26;84.47;96514.41;4961428;28;20046;-72
2024/01/05 00:12:31;;;;;;;1.00;1.00;;;;;;;4.27;84.71;96521.34;4970763;28;20054;-72
2024/01/05 00:14:59;;;;;;;0.30;0.30;;;;;;;4.33;84.54;96517.16;4976844;28;20048;-72
2024/01/05 00:17:28;;;;;;;0.98;0.98;;;;;;;4.40;84.05;96520.69;4965317;28;20175;-72
2024/01/05 00:19:56;;;;;;;1.10;1.10;;;;;;;4.28;84.43;96516.88;4969038;28;20082;-72
2024/01/05 00:22:23;;;;;;;1.00;1.00;;;;;;;4.10;85.17;96517.25;4964627;28;20047;-72
2024/01/05 00:24:51;;;;;;;0.80;0.80;;;;;;;4.22;85.04;96510.50;4980843;28;20528;-72
2024/01/05 00:27:19;;;;;;;1.13;1.13;;;;;;;4.28;84.87;96511.59;4967391;28;20118;-74
2024/01/05 00:29:46;;;;;;;1.00;1.00;;;;;;;4.29;84.82;96505.31;4982614;28;20102;-73
2024/01/05 00:32:14;;;;;;;0.88;0.88;;;;;;;4.29;84.76;96507.94;4972818;28;20078;-72
2024/01/05 00:34:46;;;;;;;0.85;0.85;;;;;;;4.19;85.21;96492.38;4970117;28;20073;-72
2024/01/05 00:37:14;;;;;;;0.98;0.98;;;;;;;4.22;85.45;96501.78;4967833;28;20050;-74
2024/01/05 00:39:42;;;;;;;0.75;0.75;;;;;;;4.22;85.27;96481.47;4955465;28;20050;-73
2024/01/05 00:42:10;;;;;;;0.80;0.80;;;;;;;4.25;85.15;96489.03;4958061;28;20109;-71
2024/01/05 00:44:37;;;;;;;0.90;0.90;;;;;;;4.26;85.15;96481.91;4966472;28;20569;-74
2024/01/05 00:47:05;;;;;;;0.20;0.20;;;;;;;4.29;85.28;96470.97;4977157;28;20437;-72
2024/01/05 00:49:33;;;;;;;0.88;0.88;;;;;;;4.32;85.53;96467.97;4962643;28;20031;-73
2024/01/05 00:52:02;;;;;;;0.75;0.75;;;;;;;4.40;85.23;96475.78;4987374;28;20133;-72
2024/01/05 00:54:29;;;;;;;0.80;0.80;;;;;;;4.40;85.10;96484.53;4968757;28;20043;-72
2024/01/05 00:56:57;;;;;;;0.80;0.80;;;;;;;4.38;85.18;96475.16;4970231;28;20502;-73
2024/01/05 00:59:25;;;;;;;0.85;0.85;;;;;;;4.35;85.47;96471.09;4970537;28;20035;-73
2024/01/05 01:01:53;;;;;;;0.85;0.85;;;;;;;4.41;85.45;96474.78;4978285;28;20047;-73
2024/01/05 01:04:21;;;;;;;1.15;1.15;;;;;;;4.44;85.51;96461.22;4967039;28;20046;-72
2024/01/05 01:06:49;;;;;;;0.93;0.93;;;;;;;4.42;85.39;96468.50;4972233;28;20561;-71
2024/01/05 01:09:18;;;;;;;0.98;0.98;;;;;;;4.44;85.62;96469.16;4983413;28;20038;-72
2024/01/05 01:11:45;;;;;;;0.88;0.88;;;;;;;4.41;85.28;96459.78;4962950;28;20093;-72
2024/01/05 01:14:13;;;;;;;0.70;0.70;;;;;;;4.29;85.29;96458.59;4979997;28;20043;-72
2024/01/05 01:16:40;;;;;;;0.98;0.98;;;;;;;4.20;85.86;96457.06;4976016;28;20043;-71
2024/01/05 01:19:08;;;;;;;1.73;1.73;;;;;;;4.17;86.32;96457.41;4959027;28;20050;-72
2024/01/05 01:21:36;;;;;;;0.98;0.98;;;;;;;4.32;86.08;96460.06;4970018;28;20045;-72
2024/01/05 01:24:04;;;;;;;0.95;0.95;;;;;;;4.32;85.94;96460.06;4965060;28;20040;-73
2024/01/05 01:26:33;;;;;;;0.60;0.60;;;;;;;4.25;86.30;96459.16;4977273;28;20043;-71
2024/01/05 01:29:01;;;;;;;1.15;1.15;;;;;;;4.29;86.50;96463.88;4970742;28;20043;-73
2024/01/05 01:31:29;;;;;;;0.77;0.77;;;;;;;4.26;86.36;96455.50;4969145;28;20047;-72
2024/01/05 01:33:57;;;;;;;0.68;0.68;;;;;;;4.19;86.65;96460.69;4972376;28;20047;-72
2024/01/05 01:36:24;;;;;;;1.30;1.30;;;;;;;4.24;86.83;96468.09;4978014;28;20101;-72
2024/01/05 01:38:52;;;;;;;0.90;0.90;;;;;;;4.22;86.97;96468.25;4976521;28;20077;-73
2024/01/05 01:41:20;;;;;;;0.80;0.80;;;;;;;4.25;86.95;96467.91;4971419;28;20035;-73
2024/01/05 01:43:49;;;;;;;1.10;1.10;;;;;;;4.31;87.02;96453.94;4987306;28;20043;-73
2024/01/05 01:46:21;;;;;;;0.80;0.80;;;;;;;4.32;86.68;96447.66;4976271;28;20117;-73
2024/01/05 01:48:48;;;;;;;0.30;0.30;;;;;;;4.37;86.69;96439.19;4986854;28;20415;-73
2024/01/05 01:51:16;;;;;;;0.93;0.93;;;;;;;4.38;86.66;96430.25;4974774;28;20113;-73
2024/01/05 01:53:44;;;;;;;1.10;1.10;;;;;;;4.35;86.58;96428.00;4976391;28;20042;-73
2024/01/05 01:56:13;;;;;;;1.10;1.10;;;;;;;4.26;87.02;96429.91;4973528;28;20057;-72
2024/01/05 01:58:41;;;;;;;0.40;0.40;;;;;;;4.27;87.36;96426.25;4976332;28;20398;-75
2024/01/05 02:01:10;;;;;;;0.30;0.30;;;;;;;4.30;87.37;96419.81;4981138;28;20387;-73
2024/01/05 02:03:38;;;;;;;0.30;0.30;;;;;;;4.31;87.54;96418.81;4969407;28;20114;-73
2024/01/05 02:06:06;;;;;;;1.10;1.10;;;;;;;4.46;87.19;96429.34;4966660;28;20132;-74
2024/01/05 02:08:34;;;;;;;1.35;1.35;;;;;;;4.59;86.43;96434.75;4967488;28;20039;-73
2024/01/05 02:11:02;;;;;;;0.82;0.82;;;;;;;4.50;86.94;96427.97;4970088;28;20117;-74
2024/01/05 02:13:29;;;;;;;0.85;0.85;;;;;;;4.56;86.64;96422.78;4973783;28;20154;-75
2024/01/05 02:15:57;;;;;;;0.93;0.93;;;;;;;4.52;87.26;96425.97;4964042;28;20046;-74
2024/01/05 02:18:26;;;;;;;0.95;0.95;;;;;;;4.60;86.79;96425.84;4970815;28;20133;-75
2024/01/05 02:20:54;;;;;;;1.00;1.00;;;;;;;4.55;87.12;96423.78;4968519;28;20045;-74
2024/01/05 02:23:23;;;;;;;1.20;1.20;;;;;;;4.51;87.12;96422.50;4967943;28;20121;-74
2024/01/05 02:25:51;;;;;;;1.40;1.40;;;;;;;4.56;86.81;96414.03;4969744;28;20047;-74
2024/01/05 02:28:19;;;;;;;1.02;1.02;;;;;;;4.52;86.95;96400.34;4979854;28;20114;-74
2024/01/05 02:30:47;;;;;;;1.10;1.10;;;;;;;4.48;87.19;96408.81;4952082;28;20047;-74
2024/01/05 02:33:15;;;;;;;1.05;1.05;;;;;;;4.41;87.57;96406.94;4974330;28;20561;-74
2024/01/05 02:35:43;;;;;;;1.15;1.15;;;;;;;4.33;87.97;96406.25;4963299;28;20395;-74
2024/01/05 02:38:10;;;;;;;1.15;1.15;;;;;;;4.35;87.79;96401.59;4980083;28;20494;-74
2024/01/05 02:40:39;;;;;;;0.88;0.88;;;;;;;4.40;87.91;96404.47;4979713;28;20436;-74
2024/01/05 02:43:07;;;;;;;0.90;0.90;;;;;;;4.39;87.99;96398.38;4974940;28;20046;-74
2024/01/05 02:45:35;;;;;;;1.17;1.17;;;;;;;4.40;88.15;96396.56;4970143;28;20043;-76
2024/01/05 02:48:04;;;;;;;1.58;1.58;;;;;;;4.39;88.42;96385.16;4944635;28;20057;-74
2024/01/05 02:50:32;;;;;;;1.00;1.00;;;;;;;4.56;88.10;96384.97;4970662;28;20051;-75
2024/01/05 02:52:59;;;;;;;0.80;0.80;;;;;;;4.48;88.17;96374.50;4961187;28;20047;-75
2024/01/05 02:55:27;;;;;;;1.08;1.08;;;;;;;4.48;88.08;96370.03;4974582;28;20042;-77
2024/01/05 02:57:56;;;;;;;0.30;0.30;;;;;;;4.47;88.39;96365.75;4981429;28;20418;-75
2024/01/05 03:00:23;;;;;;;0.90;0.90;;;;;;;4.45;88.41;96353.75;4960780;28;20537;-75
2024/01/05 03:02:51;;;;;;;1.17;1.17;;;;;;;4.50;88.38;96346.88;4978789;28;20055;-74
2024/01/05 03:05:19;;;;;;;0.95;0.95;;;;;;;4.54;88.28;96350.81;4973726;28;20039;-75
2024/01/05 03:07:47;;;;;;;0.30;0.30;;;;;;;4.56;88.22;96338.22;4972142;28;20058;-75
2024/01/05 03:10:14;;;;;;;0.80;0.80;;;;;;;4.54;88.18;96332.31;4972465;28;20054;-75
2024/01/05 03:12:42;;;;;;;1.05;1.05;;;;;;;4.57;88.23;96337.19;4973590;28;20166;-74
2024/01/05 03:15:11;;;;;;;1.08;1.08;;;;;;;4.54;88.38;96332.31;4964038;28;20053;-74
2024/01/05 03:17:39;;;;;;;0.20;0.20;;;;;;;4.57;88.54;96323.97;4965690;28;20426;-76
2024/01/05 03:20:09;;;;;;;0.82;0.82;;;;;;;4.59;88.48;96329.09;4966407;28;20520;-74
2024/01/05 03:22:36;;;;;;;1.05;1.05;;;;;;;4.61;88.25;96314.69;4951094;28;20525;-74
2024/01/05 03:25:05;;;;;;;0.25;0.25;;;;;;;4.63;88.43;96315.31;4973796;28;20114;-74
2024/01/05 03:27:32;;;;;;;0.75;0.75;;;;;;;4.64;87.74;96298.47;4983215;28;20044;-74
2024/01/05 03:30:00;;;;;;;0.20;0.20;;;;;;;4.66;87.88;96296.47;4975818;28;20451;-74
2024/01/05 03:32:29;;;;;;;0.40;0.40;;;;;;;4.72;87.78;96293.03;4971615;28;20046;-74
2024/01/05 03:34:57;;;;;;;0.90;0.90;;;;;;;4.72;87.19;96294.88;4970071;28;20700;-74
2024/01/05 03:37:24;;;;;;;0.90;0.90;;;;;;;4.71;87.56;96291.41;4977026;28;20057;-74
2024/01/05 03:39:52;;;;;;;0.98;0.98;;;;;;;4.74;87.38;96290.22;4973640;28;20514;-73
2024/01/05 03:42:19;;;;;;;0.65;0.65;;;;;;;4.75;87.51;96283.91;4971017;28;20118;-74
2024/01/05 03:44:47;;;;;;;0.73;0.73;;;;;;;4.77;87.21;96279.28;4970019;28;20050;-76
2024/01/05 03:47:15;;;;;;;0.20;0.20;;;;;;;4.78;87.09;96271.13;4974078;28;20422;-74
2024/01/05 03:49:44;;;;;;;0.82;0.82;;;;;;;4.76;87.11;96270.53;4974351;28;20490;-74
2024/01/05 03:52:11;;;;;;;0.70;0.70;;;;;;;4.74;86.62;96258.50;4962645;28;20053;-75
2024/01/05 03:54:39;;;;;;;0.95;0.95;;;;;;;4.74;86.99;96258.50;4971101;28;20051;-74
2024/01/05 03:57:06;;;;;;;1.00;1.00;;;;;;;4.68;87.07;96262.72;4974515;28;20034;-74
2024/01/05 03:59:34;;;;;;;0.82;0.82;;;;;;;4.74;87.45;96263.78;4971818;28;20038;-75
2024/01/05 04:02:02;;;;;;;1.00;1.00;;;;;;;4.77;87.07;96264.22;4972623;28;20053;-76
2024/01/05 04:04:29;;;;;;;0.70;0.70;;;;;;;4.75;86.47;96262.78;4962467;28;20122;-76
2024/01/05 04:06:58;;;;;;;0.85;0.85;;;;;;;4.68;86.90;96265.34;4974807;28;20561;-74
2024/01/05 04:09:26;;;;;;;0.70;0.70;;;;;;;4.70;86.66;96265.97;4975519;28;20046;-76
2024/01/05 04:11:53;;;;;;;0.75;0.75;;;;;;;4.62;87.17;96281.97;4978925;28;20062;-75
2024/01/05 04:14:21;;;;;;;0.68;0.68;;;;;;;4.63;87.18;96277.50;4971747;28;20035;-74
2024/01/05 04:16:49;;;;;;;0.75;0.75;;;;;;;4.55;88.15;96259.16;4970657;28;20047;-75
2024/01/05 04:19:16;;;;;;;0.68;0.68;;;;;;;4.48;88.08;96259.06;4969873;28;20066;-74
2024/01/05 04:21:44;;;;;;;0.93;0.93;;;;;;;4.47;88.29;96251.34;4968808;28;20126;-75
2024/01/05 04:24:13;;;;;;;0.82;0.82;;;;;;;4.43;88.57;96261.47;4962023;28;20046;-74
2024/01/05 04:26:41;;;;;;;0.60;0.60;;;;;;;4.45;88.41;96258.66;4970891;28;20122;-73
2024/01/05 04:29:09;;;;;;;1.00;1.00;;;;;;;4.43;88.69;96261.47;4961061;28;20043;-73
2024/01/05 04:31:36;;;;;;;1.00;1.00;;;;;;;4.43;88.75;96258.84;4958696;28;20130;-74
2024/01/05 04:34:04;;;;;;;1.00;1.00;;;;;;;4.41;88.90;96266.13;4968739;28;20059;-74
2024/01/05 04:36:32;;;;;;;1.00;1.00;;;;;;;4.39;89.04;96263.69;4954265;28;20137;-74
2024/01/05 04:38:59;;;;;;;0.70;0.70;;;;;;;4.42;88.89;96254.56;4965694;28;20047;-73
2024/01/05 04:41:29;;;;;;;0.85;0.85;;;;;;;4.42;89.05;96260.66;4975193;28;20545;-74
2024/01/05 04:43:57;;;;;;;0.90;0.90;;;;;;;4.42;89.12;96252.75;4968459;28;20054;-73
2024/01/05 04:46:24;;;;;;;1.25;1.25;;;;;;;4.42;89.16;96244.81;4965353;28;20130;-73
2024/01/05 04:48:52;;;;;;;0.90;0.90;;;;;;;4.47;88.87;96246.88;4956972;28;20051;-73
2024/01/05 04:51:19;;;;;;;1.20;1.20;;;;;;;4.47;88.96;96249.50;4971047;28;20042;-73
2024/01/05 04:53:49;;;;;;;0.98;0.98;;;;;;;4.46;89.27;96239.16;4947724;28;20065;-73
2024/01/05 04:56:17;;;;;;;1.23;1.23;;;;;;;4.46;89.47;96245.25;4977124;28;20043;-73
2024/01/05 04:58:45;;;;;;;0.82;0.82;;;;;;;4.47;89.32;96235.50;4960065;28;20046;-73
2024/01/05 05:01:13;;;;;;;0.95;0.95;;;;;;;4.53;89.23;96242.66;4972643;28;20042;-74
2024/01/05 05:03:41;;;;;;;0.80;0.80;;;;;;;4.48;89.23;96237.94;4970053;28;20057;-74
2024/01/05 05:06:09;;;;;;;0.32;0.32;;;;;;;4.48;89.22;96243.22;4975563;28;20399;-75
2024/01/05 05:08:37;;;;;;;0.88;0.88;;;;;;;4.47;89.30;96241.59;4975547;28;20046;-73
2024/01/05 05:11:05;;;;;;;0.82;0.82;;;;;;;4.47;89.47;96248.69;4967465;28;20050;-73
2024/01/05 05:13:32;;;;;;;1.17;1.17;;;;;;;4.49;89.24;96249.31;4974426;28;20050;-73
2024/01/05 05:16:01;;;;;;;0.93;0.93;;;;;;;4.50;89.35;96253.59;4964909;28;20105;-73
2024/01/05 05:18:29;;;;;;;0.30;0.30;;;;;;;4.50;89.23;96251.78;4961836;28;20429;-72
2024/01/05 05:25:08;;;;;;;0.90;0.90;;;;;;;4.53;88.90;96261.16;4966794;28;20118;-72
2024/01/05 05:27:36;;;;;;;1.10;1.10;;;;;;;4.55;89.07;96259.16;4972885;28;20043;-73
2024/01/05 05:30:05;;;;;;;0.95;0.95;;;;;;;4.54;88.84;96258.34;4973082;28;20043;-73
2024/01/05 05:32:34;;;;;;;1.05;1.05;;;;;;;4.52;88.94;96251.59;4955447;28;20084;-73
2024/01/05 05:35:02;;;;;;;1.05;1.05;;;;;;;4.52;89.04;96254.25;4964371;28;20197;-74
2024/01/05 05:37:30;;;;;;;0.50;0.50;;;;;;;4.48;88.95;96248.50;4966631;28;20478;-74
2024/01/05 05:39:57;;;;;;;0.70;0.70;;;;;;;4.48;89.06;96245.06;4965898;28;20053;-72
2024/01/05 05:42:25;;;;;;;0.85;0.85;;;;;;;4.47;89.02;96256.63;4970246;28;20154;-73
2024/01/05 05:44:53;;;;;;;1.05;1.05;;;;;;;4.43;89.36;96245.63;4962709;28;20039;-72
2024/01/05 05:47:20;;;;;;;0.95;0.95;;;;;;;4.43;88.84;96251.75;4978377;28;20077;-72
2024/01/05 05:49:49;;;;;;;0.82;0.82;;;;;;;4.46;89.32;96255.00;4971065;28;20039;-74
2024/01/05 05:52:17;;;;;;;0.85;0.85;;;;;;;4.42;89.21;96262.50;4965917;28;20077;-72
2024/01/05 05:54:44;;;;;;;1.02;1.02;;;;;;;4.37;89.28;96256.94;4964422;28;20077;-73
2024/01/05 05:57:12;;;;;;;1.05;1.05;;;;;;;4.37;89.39;96260.41;4959582;28;20035;-74
2024/01/05 05:59:41;;;;;;;0.77;0.77;;;;;;;4.43;89.34;96264.94;4966309;28;20560;-74
2024/01/05 06:02:09;;;;;;;0.93;0.93;;;;;;;4.36;89.40;96266.69;4973163;28;20085;-73
2024/01/05 06:04:36;;;;;;;0.85;0.85;;;;;;;4.38;89.60;96267.31;4971796;28;20046;-74
2024/01/05 06:07:05;;;;;;;0.70;0.70;;;;;;;4.37;89.14;96270.97;4966149;28;20050;-72
2024/01/05 06:09:33;;;;;;;0.20;0.20;;;;;;;4.35;89.77;96267.72;4972330;28;20402;-73
2024/01/05 06:12:01;;;;;;;1.70;1.70;;;;;;;4.27;89.55;96262.53;4965294;28;20043;-72
2024/01/05 06:14:29;;;;;;;0.93;0.93;;;;;;;4.22;89.77;96254.38;4975941;28;20113;-75
2024/01/05 06:16:56;;;;;;;0.30;0.30;;;;;;;4.22;89.77;96267.59;4968361;28;20478;-73
2024/01/05 06:19:24;;;;;;;0.28;0.28;;;;;;;4.28;89.72;96268.63;4963206;28;20549;-72
2024/01/05 06:21:52;;;;;;;0.82;0.82;;;;;;;4.31;89.52;96273.56;4966166;28;20545;-73
2024/01/05 06:24:21;;;;;;;1.13;1.13;;;;;;;4.27;89.26;96267.81;4970784;28;20031;-73
2024/01/05 06:26:48;;;;;;;1.17;1.17;;;;;;;4.25;89.54;96266.41;4981516;28;20122;-72
2024/01/05 06:29:16;;;;;;;0.82;0.82;;;;;;;4.26;89.46;96270.66;4947385;28;20051;-72
2024/01/05 06:31:44;;;;;;;1.00;1.00;;;;;;;4.26;89.57;96265.38;4960433;28;20058;-72
2024/01/05 06:34:12;;;;;;;0.30;0.30;;;;;;;4.25;89.32;96271.69;4962469;28;20393;-72
2024/01/05 06:36:40;;;;;;;0.30;0.30;;;;;;;4.23;89.26;96268.41;4965491;28;20389;-71
2024/01/05 06:39:08;;;;;;;0.90;0.90;;;;;;;4.19;89.38;96257.38;4972006;28;20057;-71
2024/01/05 06:41:37;;;;;;;0.20;0.20;;;;;;;4.20;89.22;96260.84;4977615;28;20383;-72
2024/01/05 06:44:05;;;;;;;0.95;0.95;;;;;;;4.19;89.27;96259.22;4973388;28;20039;-71
2024/01/05 06:46:33;;;;;;;1.02;1.02;;;;;;;4.16;89.35;96259.56;4970802;28;20048;-71
2024/01/05 06:49:00;;;;;;;1.20;1.20;;;;;;;4.18;89.20;96253.09;4974672;28;20046;-71
2024/01/05 06:51:29;;;;;;;1.10;1.10;;;;;;;4.20;89.23;96250.28;4970750;28;20043;-71
2024/01/05 06:53:58;;;;;;;0.93;0.93;;;;;;;4.17;88.97;96242.72;4977411;28;20079;-72
2024/01/05 06:56:28;;;;;;;0.40;0.40;;;;;;;4.18;88.93;96247.81;4976798;28;20386;-71
2024/01/05 06:58:56;;;;;;;0.90;0.90;;;;;;;4.21;88.76;96241.38;4973067;28;20047;-71
2024/01/05 07:01:24;;;;;;;0.75;0.75;;;;;;;4.18;89.00;96231.16;4973276;28;20157;-71
2024/01/05 07:03:52;;;;;;;0.93;0.93;;;;;;;4.13;88.96;96230.94;4975571;28;20043;-72
2024/01/05 07:06:20;;;;;;;0.90;0.90;;;;;;;4.14;89.00;96230.75;4984983;28;20042;-70
2024/01/05 07:08:47;;;;;;;0.70;0.70;;;;;;;4.12;88.71;96224.84;4976231;28;20039;-70
2024/01/05 07:11:19;;;;;;;0.88;0.88;;;;;;;4.12;88.81;96231.94;4972869;28;20062;-71
2024/01/05 07:13:47;;;;;;;0.77;0.77;;;;;;;4.11;88.66;96230.28;4975947;28;20129;-71
2024/01/05 07:16:17;;;;;;;1.00;1.00;;;;;;;4.14;88.59;96224.66;4966866;28;20049;-72
2024/01/05 07:18:46;;;;;;;0.85;0.85;;;;;;;4.14;88.27;96227.28;4979127;28;20081;-71
2024/01/05 07:21:13;;;;;;;0.90;0.90;;;;;;;4.15;88.31;96234.22;4974981;28;20038;-71
2024/01/05 07:23:41;;;;;;;1.15;1.15;;;;;;;4.16;88.51;96241.09;4969961;28;20035;-71
2024/01/05 07:26:09;;;;;;;0.80;0.80;;;;;;;4.15;88.46;96247.41;4977373;28;20372;-71
2024/01/05 07:28:37;;;;;;;1.08;1.08;;;;;;;4.14;88.17;96251.88;4972496;28;20039;-71
2024/01/05 07:31:05;;;;;;;1.00;1.00;;;;;;;4.14;88.19;96259.78;4971807;28;20149;-72
2024/01/05 07:33:34;;;;;;;0.82;0.82;;;;;;;4.15;88.24;96247.41;4975875;28;20122;-71
2024/01/05 07:36:04;;;;;;;0.70;0.70;;;;;;;4.15;88.18;96244.75;4969799;28;20061;-71
2024/01/05 07:38:34;;;;;;;0.90;0.90;;;;;;;4.17;88.39;96255.94;4958980;28;20138;-71
2024/01/05 07:41:01;;;;;;;0.73;0.73;;;;;;;4.16;88.40;96249.84;4976256;28;20051;-71
2024/01/05 07:43:30;;;;;;;0.93;0.93;;;;;;;4.15;88.26;96250.03;4961177;28;20501;-71
2024/01/05 07:45:58;;;;;;;0.80;0.80;;;;;;;4.14;88.16;96249.22;4966249;28;20075;-71
2024/01/05 07:48:25;;;;;;;0.65;0.65;;;;;;;4.09;88.39;96243.69;4986570;28;20070;-71
2024/01/05 07:50:54;;;;;;;0.80;0.80;;;;;;;4.09;88.49;96234.94;4972248;28;20054;-71
2024/01/05 07:53:22;;;;;;;0.90;0.90;;;;;;;4.10;88.41;96228.66;4976739;28;20082;-71
2024/01/05 07:55:50;;;;;;;0.80;0.80;;;;;;;4.10;88.35;96233.94;4968597;28;20042;-70
2024/01/05 07:58:18;;;;;;;0.70;0.70;;;;;;;4.11;88.05;96230.28;4967929;28;20066;-70
2024/01/05 08:00:45;;;;;;;0.90;0.90;;;;;;;4.10;88.17;96229.47;4972386;28;20118;-73
2024/01/05 08:03:13;;;;;;;0.90;0.90;;;;;;;4.12;88.21;96229.28;4974871;28;20035;-71
2024/01/05 08:05:41;;;;;;;0.93;0.93;;;;;;;4.13;88.09;96223.00;4980162;28;20054;-71
2024/01/05 08:08:15;;;;;;;;;;;;;;;4.15;87.92;96224.47;4970730;28;20454;-72
2024/01/05 08:10:42;;;;;;;0.90;0.90;;;;;;;4.16;87.92;96222.63;4985444;28;19929;-70
2024/01/05 08:13:10;;;;;;;1.13;1.13;;;;;;;4.18;87.66;96216.16;4979600;28;20053;-71
2024/01/05 08:15:37;;;;;;;0.60;0.60;;;;;;;4.19;87.62;96216.97;4977433;28;20053;-74
2024/01/05 08:18:05;;;;;;;0.73;0.73;;;;;;;4.25;87.52;96218.88;4968748;28;20074;-70
2024/01/05 08:20:33;;;;;;;0.20;0.20;;;;;;;4.29;87.32;96209.53;4969064;28;20541;-70
2024/01/05 08:23:02;;;;;;;1.10;1.10;;;;;;;4.35;87.26;96220.19;4974688;28;20043;-73
2024/01/05 08:25:31;;;;;;;0.65;0.65;;;;;;;4.36;86.73;96215.72;4973236;28;20066;-70
2024/01/05 08:27:58;;;;;;;0.98;0.98;;;;;;;4.39;86.70;96224.06;4975407;28;20525;-71
2024/01/05 08:30:26;;;;;;;0.95;0.95;;;;;;;4.50;86.59;96230.66;4972134;28;20057;-70
2024/01/05 08:32:55;;;;;;;1.08;1.08;;;;;;;4.54;85.91;96229.28;4973085;28;20529;-71
2024/01/05 08:35:23;;;;;;;0.98;0.98;;;;;;;4.55;85.86;96235.38;4978328;28;20508;-71
2024/01/05 08:37:51;;;;;;;1.05;1.05;;;;;;;4.56;85.42;96234.38;4978935;28;20050;-71
2024/01/05 08:40:19;;;;;;;1.00;1.00;;;;;;;4.64;85.44;96240.34;4978345;28;20038;-73
2024/01/05 08:42:47;;;;;;;0.80;0.80;;;;;;;4.66;85.24;96240.97;4991783;28;20038;-72
2024/01/05 08:45:18;;;;;;;0.85;0.85;;;;;;;4.62;84.79;96231.78;4979932;28;20089;-71
2024/01/05 08:47:45;;;;;;;0.70;0.70;;;;;;;4.68;85.01;96241.56;4979838;28;20043;-70
2024/01/05 08:50:15;;;;;;;1.13;1.13;;;;;;;4.70;85.28;96244.03;4983755;28;20459;-71
2024/01/05 08:52:43;;;;;;;1.13;1.13;;;;;;;4.63;84.56;96233.41;4971843;28;20058;-71
2024/01/05 08:55:11;;;;;;;0.75;0.75;;;;;;;4.64;84.84;96229.75;4973905;28;20087;-72
2024/01/05 08:57:38;;;;;;;1.05;1.05;;;;;;;4.58;84.59;96241.06;4976378;28;20056;-74
2024/01/05 09:00:10;;;;;;;1.00;1.00;;;;;;;4.60;84.58;96235.59;4967612;28;20039;-71
2024/01/05 09:02:38;;;;;;;0.35;0.35;;;;;;;4.52;84.77;96244.50;4959349;28;20374;-71
2024/01/05 09:05:06;;;;;;;0.93;0.93;;;;;;;4.52;84.98;96243.69;4980276;28;20070;-72
2024/01/05 09:07:34;;;;;;;0.20;0.20;;;;;;;4.49;84.89;96247.50;4966214;28;20429;-71
2024/01/05 09:10:08;;;;;;;0.85;0.85;;;;;;;4.52;85.04;96249.78;4967136;28;20058;-71
2024/01/05 09:12:35;;;;;;;1.33;1.33;;;;;;;4.59;84.87;96263.03;4962490;28;20051;-72
2024/01/05 09:15:03;;;;;;;0.82;0.82;;;;;;;4.54;84.63;96254.88;4966708;28;20094;-72
2024/01/05 09:17:33;;;;;;;1.00;1.00;;;;;;;4.54;84.45;96249.59;4968373;28;20074;-72
2024/01/05 09:20:03;;;;;;;0.85;0.85;;;;;;;4.51;84.25;96256.06;4962946;28;20047;-71
2024/01/05 09:22:31;;;;;;;1.02;1.02;;;;;;;4.50;84.42;96249.16;4970983;28;20344;-72
2024/01/05 09:24:58;;;;;;;0.80;0.80;;;;;;;4.49;84.30;96247.50;4974970;28;20078;-71
2024/01/05 09:27:26;;;;;;;0.93;0.93;;;;;;;4.49;84.28;96257.25;4974152;28;20129;-72
2024/01/05 09:29:53;;;;;;;0.30;0.30;;;;;;;4.48;84.41;96245.88;4959110;28;20445;-71
2024/01/05 09:32:22;;;;;;;0.35;0.35;;;;;;;4.51;83.77;96258.72;4987090;28;20374;-71
2024/01/05 09:34:51;;;;;;;0.70;0.70;;;;;;;4.51;84.21;96264.00;4958862;28;20046;-72
2024/01/05 09:37:18;;;;;;;0.82;0.82;;;;;;;4.55;83.69;96262.63;4956998;28;20047;-71
2024/01/05 09:39:47;;;;;;;0.98;0.98;;;;;;;4.59;83.99;96274.41;4983368;28;20038;-71
2024/01/05 09:42:14;;;;;;;1.33;1.33;;;;;;;4.62;83.65;96263.47;4977198;28;20043;-71
2024/01/05 09:44:43;;;;;;;0.90;0.90;;;;;;;4.67;83.52;96263.72;4953602;28;20141;-71
2024/01/05 09:47:11;;;;;;;1.10;1.10;;;;;;;4.67;83.31;96252.34;4973657;28;20046;-71
2024/01/05 09:49:44;;;;;;;0.80;0.80;;;;;;;4.69;83.18;96250.31;4975675;28;20490;-71
2024/01/05 09:52:14;;;;;;;0.82;0.82;;;;;;;4.70;82.77;96242.19;4966464;28;20043;-71
2024/01/05 09:54:42;;;;;;;1.35;1.35;;;;;;;4.70;82.73;96234.28;4965048;28;20035;-71
2024/01/05 09:57:16;;;;;;;0.98;0.98;;;;;;;4.72;82.55;96242.84;4968842;28;20042;-72
2024/01/05 09:59:45;;;;;;;1.15;1.15;;;;;;;4.80;82.39;96245.31;4962943;28;20043;-73
2024/01/05 10:02:16;;;;;;;0.93;0.93;;;;;;;4.83;82.35;96236.19;4970980;28;20494;-71
2024/01/05 10:04:44;;;;;;;0.68;0.68;;;;;;;4.91;82.46;96228.13;4963042;28;20297;-71
2024/01/05 10:07:11;;;;;;;0.65;0.65;;;;;;;4.94;81.50;96229.56;4967545;28;20522;-71
2024/01/05 10:09:50;;;;;;;0.20;0.20;;;;;;;4.94;81.49;96227.75;4959782;28;20466;-71
2024/01/05 10:12:18;;;;;;;1.13;1.13;;;;;;;4.99;81.25;96214.75;4968877;28;20047;-70
2024/01/05 10:14:47;;;;;;;0.98;0.98;;;;;;;5.08;80.85;96215.44;4976084;28;20047;-70
2024/01/05 10:17:15;;;;;;;0.80;0.80;;;;;;;5.16;80.66;96207.34;4961217;28;20086;-73
2024/01/05 10:19:43;;;;;;;0.93;0.93;;;;;;;5.24;80.24;96203.72;4965849;28;20529;-70
2024/01/05 10:22:12;;;;;;;0.70;0.70;;;;;;;5.38;80.23;96200.94;4974645;28;20054;-71
2024/01/05 10:24:42;;;;;;;1.02;1.02;;;;;;;5.48;79.52;96196.09;4958177;28;20035;-71
2024/01/05 10:27:12;;;;;;;0.80;0.80;;;;;;;5.60;79.28;96191.06;4979950;28;20051;-71
2024/01/05 10:29:43;;;;;;;1.48;1.48;;;;;;;5.64;79.03;96180.88;4987874;28;20097;-71
2024/01/05 10:32:14;;;;;;;0.68;0.68;;;;;;;5.76;79.24;96187.22;4975854;28;20050;-71
2024/01/05 10:34:42;;;;;;;0.65;0.65;;;;;;;5.87;78.34;96182.19;4971773;28;20104;-73
2024/01/05 10:37:11;;;;;;;0.98;0.98;;;;;;;5.95;77.95;96177.72;4975151;28;20057;-72
2024/01/05 10:39:39;;;;;;;0.65;0.65;;;;;;;5.98;77.30;96170.22;4969317;28;20545;-73
2024/01/05 10:42:29;;;;;;;0.88;0.88;;;;;;;6.06;77.76;96155.94;4971558;28;20657;-72
2024/01/05 10:44:58;;;;;;;1.02;1.02;;;;;;;6.15;77.26;96158.19;4960607;28;20063;-71
2024/01/05 10:47:28;;;;;;;1.00;1.00;;;;;;;6.24;76.55;96161.47;4972550;28;20121;-73
2024/01/05 10:49:56;;;;;;;0.20;0.20;;;;;;;6.33;75.93;96164.75;4974114;28;20398;-71
2024/01/05 10:52:31;;;;;;;1.02;1.02;;;;;;;6.46;74.93;96152.31;4973449;28;20482;-70
2024/01/05 10:55:02;;;;;;;0.65;0.65;;;;;;;6.43;73.68;96154.56;4968166;28;20050;-72
2024/01/05 10:57:36;;;;;;;0.90;0.90;;;;;;;6.49;74.03;96151.09;4964323;28;20070;-72
2024/01/05 11:00:05;;;;;;;0.32;0.32;;;;;;;6.59;74.31;96154.13;4979299;28;20417;-73
2024/01/05 11:02:39;;;;;;;1.02;1.02;;;;;;;6.61;74.13;96154.75;4970488;28;20141;-73
2024/01/05 11:05:08;;;;;;;0.90;0.90;;;;;;;6.65;73.02;96142.69;4964356;28;20071;-73
2024/01/05 11:07:37;;;;;;;0.90;0.90;;;;;;;6.66;72.78;96146.97;4969957;28;20043;-72
2024/01/05 11:10:14;;;;;;;1.02;1.02;;;;;;;6.71;73.12;96139.25;4970159;28;20057;-71
2024/01/05 11:12:55;;;;;;;1.05;1.05;;;;;;;6.72;73.28;96148.81;4968540;28;20446;-71
2024/01/05 11:15:36;;;;;;;1.02;1.02;;;;;;;6.89;73.06;96151.84;4977760;28;20038;-71
2024/01/05 11:18:35;;;;;;;0.77;0.77;;;;;;;6.91;72.12;96160.41;4962444;28;20055;-70
2024/01/05 11:21:09;;;;;;;1.23;1.23;;;;;;;6.81;72.11;96142.28;5007021;23;20053;-76
2024/01/05 11:23:38;;;;;;;0.80;0.80;;;;;;;6.87;72.63;96144.09;4996585;28;20128;-76
2024/01/05 11:26:06;;;;;;;0.93;0.93;;;;;;;6.91;71.44;96145.31;4999740;28;20050;-76
2024/01/05 11:28:36;;;;;;;0.95;0.95;;;;;;;6.97;71.55;96135.69;4994322;28;20054;-75
2024/01/05 11:31:04;;;;;;;0.90;0.90;;;;;;;7.05;71.40;96148.75;4991146;28;20184;-74
2024/01/05 11:33:46;;;;;;;0.20;0.20;;;;;;;7.21;70.84;96152.78;4993059;28;20481;-78
2024/01/05 11:36:14;;;;;;;0.73;0.73;;;;;;;7.26;70.40;96150.34;4997145;28;20049;-77
2024/01/05 11:38:43;;;;;;;0.63;0.63;;;;;;;7.32;70.02;96146.81;4992927;28;20038;-74
2024/01/05 11:41:18;;;;;;;0.95;0.95;;;;;;;7.22;70.52;96144.63;4988421;28;20043;-77
2024/01/05 11:43:47;;;;;;;1.20;1.20;;;;;;;7.19;71.14;96154.81;4985794;28;20176;-76
2024/01/05 11:46:14;;;;;;;0.30;0.30;;;;;;;7.16;71.47;96150.78;4997437;28;20446;-76
2024/01/05 11:48:51;;;;;;;1.02;1.02;;;;;;;7.10;71.51;96134.84;4991828;28;20042;-76
2024/01/05 11:51:19;;;;;;;0.98;0.98;;;;;;;7.08;71.48;96131.59;4993224;28;20053;-74